Terminal Aerodrome Forecast
Issued by NWS Caribou, ME

Home | Current Version | Previous Version | Text Only | Print | Product List | Glossary On
Versions: 1 2 3 4 5 6 7 8 9 10 11 12 13 14 15 16 17 18 19 20 21 22 23 24 25
000
FTUS41 KCAR 231400 AAB
TAFBGR
TAF AMD
KBGR 231420Z 2314/2412 04015G25KT 5SM -RA OVC010
     FM231700 03015G25KT 3SM RA SCT007 OVC015
     FM232000 04014G21KT 3SM RA OVC010
     FM240200 05016KT 2SM RA OVC007=

USA.gov is the U.S. government's official web portal to all federal, state and local government web resources and services.